Date,TemperatureHighF,TemperatureAvgF,TemperatureLowF,DewpointHighF,DewpointAvgF,DewpointLowF,HumidityHigh,HumidityAvg,HumidityLow,PressureMaxIn,PressureMinIn,WindSpeedMaxMPH,WindSpeedAvgMPH,GustSpeedMaxMPH,PrecipitationSumIn
2013-4-1,67.6,59.3,54.7,53.0,50.7,47.0,88,75,48,30.10,30.01,3,1,7,0.00
2013-4-2,71.6,59.5,52.6,52.5,51.1,49.4,91,76,49,30.03,29.92,2,0,7,0.00
2013-4-3,57.3,55.5,54.8,53.8,52.9,52.2,92,91,88,30.02,29.97,0,0,0,0.00
2013-4-4,72.8,72.5,72.3,53.2,53.2,51.9,51,51,50,30.01,30.00,1,1,2,0.00
2013-4-5,58.3,58.3,58.3,53.2,53.2,53.2,83,83,83,29.96,29.96,0,0,0,0.00
2013-4-6,68.6,68.6,68.6,53.2,53.2,53.2,58,58,58,29.95,29.95,2,2,2,0.00
2013-4-7,52.2,52.2,52.2,49.1,49.1,49.1,89,89,89,29.85,29.85,0,0,0,0.00
2013-4-8,63.9,63.7,63.5,44.9,44.5,44.2,50,50,49,29.65,29.64,2,1,2,0.00
2013-4-9,58.7,56.1,49.2,43.6,41.8,41.1,81,60,52,29.87,29.77,0,0,0,0.00
2013-4-10,51.7,51.7,51.7,37.4,37.4,37.4,58,58,58,29.94,29.94,0,0,0,0.00
2013-4-12,73.9,65.1,56.9,53.6,52.6,51.2,86,66,47,29.82,29.71,2,0,7,0.00
2013-4-13,60.5,58.0,55.6,54.3,52.5,49.0,87,82,78,29.85,29.77,1,0,3,0.00
2013-4-14,65.3,57.4,54.2,51.4,49.5,47.6,86,75,60,29.82,29.76,2,0,5,0.00
2013-4-15,63.5,57.8,53.6,53.0,49.0,-99.9,84,75,61,29.85,29.78,5,1,10,0.00
2013-4-16,63.4,55.6,49.8,47.0,43.0,35.9,79,64,39,29.92,29.80,5,1,7,0.00
2013-4-17,73.7,58.1,43.2,42.1,30.6,19.3,78,42,14,30.04,29.92,5,1,10,0.00
2013-4-18,83.2,65.8,47.9,33.9,22.6,12.4,57,23,7,30.11,30.02,4,0,8,0.00
2013-4-19,87.4,66.8,48.2,40.4,28.3,18.2,52,29,10,30.07,29.90,3,0,8,0.00
2013-4-20,86.3,67.3,50.7,53.8,44.4,34.6,75,49,19,29.92,29.80,2,0,4,0.00
2013-4-21,84.0,65.4,54.8,55.7,52.2,42.1,93,68,26,29.94,29.86,2,0,4,0.00
2013-4-22,78.1,61.5,54.5,54.4,51.8,50.3,88,72,41,29.94,29.83,2,0,6,0.00
2013-4-23,76.3,62.1,56.3,52.9,50.8,49.3,82,68,42,29.91,29.78,3,0,6,0.00
2013-4-24,62.0,59.0,56.7,54.1,51.8,47.3,90,77,62,29.91,29.83,4,0,5,0.02
2013-4-25,73.5,61.6,55.4,54.6,51.3,47.7,93,71,41,30.04,29.90,2,0,5,0.00
2013-4-26,77.9,63.3,49.9,53.3,50.0,46.5,90,66,35,30.08,30.03,2,0,5,0.00
2013-4-27,78.6,64.0,52.0,57.3,53.8,49.2,92,72,46,30.08,29.93,1,0,3,0.00
2013-4-28,82.0,64.9,57.2,57.5,54.9,53.4,88,73,42,29.96,29.79,1,0,6,0.01
2013-4-29,78.1,62.8,56.9,57.3,54.5,52.5,89,76,47,29.84,29.72,2,0,5,0.00
2013-4-30,69.4,61.3,57.5,54.2,52.7,51.3,83,74,58,29.82,29.75,3,0,7,0.00